Time;durP1;ratioP1;P1;durP2;ratioP2;P2;SDS_P1;SDS_P2;PMS_P1;PMS_P2;Temp;Humidity;BMP_temperature;BMP_pressure;BME280_temperature;BME280_humidity;BME280_pressure;Samples;Min_cycle;Max_cycle;Signal;HPM_P1;HPM_P2
2023/01/11 00:01:42;;;;;;;5.78;2.70;;;;;;;8.80;100.00;100688.75;5075087;28;20037;-38
2023/01/11 00:04:07;;;;;;;6.03;2.83;;;;;;;8.80;100.00;100686.88;5074891;28;20033;-38
2023/01/11 00:06:32;;;;;;;4.60;2.50;;;;;;;8.81;100.00;100685.81;5075290;28;20052;-37
2023/01/11 00:08:58;;;;;;;4.63;2.43;;;;;;;8.83;100.00;100690.97;5075645;28;20075;-39
2023/01/11 00:11:23;;;;;;;5.20;2.35;;;;;;;8.86;100.00;100693.25;5075408;28;20119;-38
2023/01/11 00:13:49;;;;;;;4.50;2.47;;;;;;;8.90;100.00;100684.50;5075213;28;20029;-38
2023/01/11 00:16:14;;;;;;;4.73;2.30;;;;;;;8.92;100.00;100674.28;5075229;28;20033;-37
2023/01/11 00:18:40;;;;;;;3.73;2.00;;;;;;;8.96;100.00;100680.88;5075183;28;20021;-37
2023/01/11 00:21:06;;;;;;;6.90;2.45;;;;;;;8.91;100.00;100658.34;5075570;28;20024;-38
2023/01/11 00:23:35;;;;;;;5.70;2.17;;;;;;;8.96;100.00;100651.22;5074731;28;20032;-37
2023/01/11 00:26:04;;;;;;;4.70;2.00;;;;;;;8.98;100.00;100659.94;5074897;28;20028;-38
2023/01/11 00:28:30;;;;;;;4.82;2.08;;;;;;;8.99;100.00;100663.44;5074619;28;20033;-37
2023/01/11 00:30:56;;;;;;;3.05;1.83;;;;;;;9.03;100.00;100665.47;5074816;28;20028;-37
2023/01/11 00:33:21;;;;;;;3.33;1.75;;;;;;;9.01;100.00;100659.47;5075595;28;20086;-37
2023/01/11 00:35:50;;;;;;;3.10;1.80;;;;;;;8.97;100.00;100649.34;5075017;28;20457;-37
2023/01/11 00:38:42;;;;;;;3.10;1.80;;;;;;;8.83;100.00;100628.97;5075167;28;20361;-38
2023/01/11 00:47:55;;;;;;;4.47;1.77;;;;;;;9.02;100.00;100657.59;5075363;28;20377;-37
2023/01/11 00:49:14;;;;;;;3.08;1.38;;;;;;;9.03;100.00;100660.06;5074548;28;20534;-37
2023/01/11 00:51:39;;;;;;;3.57;1.90;;;;;;;9.02;100.00;100663.81;5074522;28;20028;-37
2023/01/11 00:54:04;;;;;;;5.67;1.90;;;;;;;9.01;100.00;100659.47;5074715;28;20619;-37
2023/01/11 00:56:29;;;;;;;3.20;1.93;;;;;;;8.95;100.00;100646.06;5074367;28;20115;-37
2023/01/11 00:58:55;;;;;;;3.40;1.67;;;;;;;8.92;100.00;100641.94;5074578;28;20404;-37
2023/01/11 01:01:20;;;;;;;5.33;2.00;;;;;;;8.98;100.00;100661.81;5074224;28;20036;-37
2023/01/11 01:03:45;;;;;;;4.13;2.23;;;;;;;8.98;100.00;100651.03;5074848;28;20036;-37
2023/01/11 01:06:11;;;;;;;3.80;1.90;;;;;;;8.97;100.00;100655.56;5074703;28;20032;-39
2023/01/11 01:08:36;;;;;;;2.50;1.80;;;;;;;8.99;100.00;100648.09;5074484;28;20043;-36
2023/01/11 01:11:01;;;;;;;2.63;1.50;;;;;;;8.99;100.00;100652.66;5074302;28;20028;-38
2023/01/11 01:16:10;;;;;;;3.60;1.83;;;;;;;9.04;100.00;100644.72;5073170;28;20075;-37
2023/01/11 01:18:36;;;;;;;2.70;1.63;;;;;;;9.05;100.00;100645.53;5073747;28;20056;-38
2023/01/11 01:21:01;;;;;;;3.37;2.23;;;;;;;9.09;100.00;100662.94;5074185;28;20028;-37
2023/01/11 01:23:26;;;;;;;4.23;1.90;;;;;;;9.10;100.00;100648.38;5074495;28;20029;-37
2023/01/11 01:25:52;;;;;;;3.53;1.90;;;;;;;9.09;100.00;100662.94;5074658;28;20028;-38
2023/01/11 01:28:20;;;;;;;4.00;2.00;;;;;;;9.13;100.00;100650.63;5073644;28;20028;-37
2023/01/11 01:30:50;;;;;;;3.55;2.08;;;;;;;9.12;100.00;100649.78;5073692;28;20420;-38
2023/01/11 01:33:15;;;;;;;3.65;1.70;;;;;;;9.07;100.00;100638.84;5074318;28;20115;-38
2023/01/11 01:35:40;;;;;;;3.53;1.93;;;;;;;9.14;100.00;100649.59;5073988;28;20515;-37
2023/01/11 01:38:05;;;;;;;3.47;1.97;;;;;;;9.16;100.00;100651.00;5073828;28;20506;-37
2023/01/11 01:40:31;;;;;;;2.30;1.80;;;;;;;9.14;100.00;100638.78;5073642;28;20032;-37
2023/01/11 01:42:56;;;;;;;5.60;2.00;;;;;;;9.21;100.00;100648.44;5073708;28;20024;-37
2023/01/11 01:45:25;;;;;;;4.07;2.00;;;;;;;9.14;100.00;100641.50;5074194;28;20103;-38
2023/01/11 01:48:01;;;;;;;2.75;1.80;;;;;;;9.21;100.00;100653.81;5073824;28;20020;-38
2023/01/11 01:50:32;;;;;;;3.80;2.03;;;;;;;9.24;100.00;100644.47;5074046;28;20380;-38
2023/01/11 01:53:15;;;;;;;4.45;2.10;;;;;;;9.23;100.00;100642.84;5072256;28;20050;-38
2023/01/11 01:55:46;;;;;;;3.53;2.00;;;;;;;9.28;100.00;100643.78;5073537;28;20079;-38
2023/01/11 01:58:15;;;;;;;3.58;1.77;;;;;;;9.33;100.00;100651.22;5074065;28;20089;-38
2023/01/11 02:00:43;;;;;;;2.75;1.42;;;;;;;9.34;100.00;100639.34;5073519;28;20078;-38
2023/01/11 02:03:12;;;;;;;2.42;1.70;;;;;;;9.35;100.00;100646.41;5073494;28;20430;-38
2023/01/11 02:05:38;;;;;;;3.92;1.95;;;;;;;9.38;100.00;100640.56;5073710;28;20024;-38
2023/01/11 02:08:10;;;;;;;3.50;1.90;;;;;;;9.39;100.00;100644.06;5073700;28;20365;-38
2023/01/11 02:10:36;;;;;;;2.42;1.83;;;;;;;9.35;100.00;100627.50;5073864;28;20063;-38
2023/01/11 02:13:07;;;;;;;;;;;;;;;9.43;100.00;100638.00;5073452;28;20033;-38
2023/01/11 02:15:33;;;;;;;3.72;1.70;;;;;;;9.45;100.00;100643.97;5073612;28;19908;-38
2023/01/11 02:17:58;;;;;;;3.63;1.70;;;;;;;9.41;100.00;100637.38;5073326;28;20094;-38
2023/01/11 02:20:29;;;;;;;2.27;1.43;;;;;;;9.46;100.00;100637.50;5073391;28;20025;-37
2023/01/11 02:23:09;;;;;;;3.13;1.90;;;;;;;9.50;100.00;100651.38;5073326;28;20029;-37
2023/01/11 02:26:05;;;;;;;3.20;1.73;;;;;;;9.50;100.00;100638.72;5073544;28;20060;-37
2023/01/11 02:28:55;;;;;;;2.95;1.35;;;;;;;9.54;100.00;100637.22;5076189;28;20057;-37
2023/01/11 02:31:42;;;;;;;5.07;1.75;;;;;;;9.60;100.00;100640.03;5076832;28;20037;-37
2023/01/11 02:34:13;;;;;;;2.85;1.50;;;;;;;9.60;100.00;100642.75;5077104;28;20062;-37
2023/01/11 02:37:02;;;;;;;2.13;1.55;;;;;;;9.62;100.00;100630.69;5077079;28;20043;-37
2023/01/11 02:39:46;;;;;;;2.35;1.40;;;;;;;9.63;100.00;100628.78;5077272;28;20025;-37
2023/01/11 02:45:28;;;;;;;3.03;1.52;;;;;;;9.61;100.00;100611.97;5076874;28;20447;-37
2023/01/11 02:48:02;;;;;;;2.78;1.70;;;;;;;9.70;100.00;100626.81;5077095;28;20029;-37
2023/01/11 02:50:41;;;;;;;3.15;1.50;;;;;;;9.65;100.00;100610.47;5077540;28;20442;-37
2023/01/11 02:53:29;;;;;;;2.55;1.50;;;;;;;9.64;100.00;100616.94;5077037;28;20457;-37
2023/01/11 02:55:58;;;;;;;2.95;1.73;;;;;;;9.66;100.00;100609.41;5076974;28;20036;-37
2023/01/11 02:58:28;;;;;;;3.20;1.55;;;;;;;9.70;100.00;100616.00;5076536;28;20047;-38
2023/01/11 03:00:57;;;;;;;2.08;1.55;;;;;;;9.76;100.00;100626.72;5076599;28;20039;-38
2023/01/11 03:03:23;;;;;;;2.83;1.60;;;;;;;9.76;100.00;100620.47;5076166;28;20062;-38
2023/01/11 03:05:53;;;;;;;3.08;1.70;;;;;;;9.76;100.00;100618.63;5077123;28;20066;-38
2023/01/11 03:08:27;;;;;;;2.40;1.73;;;;;;;9.79;100.00;100625.44;5076553;28;20043;-38
2023/01/11 03:11:06;;;;;;;3.47;1.73;;;;;;;9.73;100.00;100607.47;5076698;28;20039;-38
2023/01/11 03:13:53;;;;;;;2.60;1.60;;;;;;;9.84;100.00;100625.56;5076754;28;20046;-38
2023/01/11 03:16:26;;;;;;;3.47;1.80;;;;;;;9.76;100.00;100604.28;5076466;28;20025;-38
2023/01/11 03:19:24;;;;;;;3.00;1.75;;;;;;;9.82;100.00;100603.38;5076416;28;20035;-38
2023/01/11 03:22:16;;;;;;;2.10;1.60;;;;;;;9.90;100.00;100613.81;5077035;28;20433;-38
2023/01/11 03:24:51;;;;;;;2.45;1.70;;;;;;;9.90;100.00;100611.13;5076959;28;20078;-38
2023/01/11 03:27:26;;;;;;;3.55;1.67;;;;;;;9.87;100.00;100605.38;5076702;28;20024;-38
2023/01/11 03:30:04;;;;;;;2.50;1.80;;;;;;;9.87;100.00;100608.91;5076239;28;20025;-38
2023/01/11 03:32:55;;;;;;;3.10;1.77;;;;;;;9.94;100.00;100612.31;5076229;28;20021;-38
2023/01/11 03:35:30;;;;;;;2.83;1.33;;;;;;;9.95;100.00;100613.13;5075987;28;20028;-38
2023/01/11 03:38:11;;;;;;;2.05;1.40;;;;;;;9.96;100.00;100617.50;5075945;28;20432;-38
2023/01/11 03:40:41;;;;;;;2.50;1.48;;;;;;;9.93;100.00;100607.16;5075662;28;20033;-38
2023/01/11 03:43:10;;;;;;;2.55;1.52;;;;;;;9.97;100.00;100621.84;5075560;28;20090;-38
2023/01/11 03:45:55;;;;;;;2.08;1.38;;;;;;;9.92;100.00;100614.44;5075535;28;20032;-38
2023/01/11 03:48:28;;;;;;;2.28;1.65;;;;;;;9.99;100.00;100617.00;5076500;28;20433;-38
2023/01/11 03:50:55;;;;;;;2.67;1.90;;;;;;;9.99;100.00;100615.13;5076621;28;20357;-36
2023/01/11 03:53:23;;;;;;;1.77;1.30;;;;;;;10.00;100.00;100619.50;5075239;28;20032;-36
2023/01/11 03:55:54;;;;;;;2.28;1.75;;;;;;;10.02;100.00;100614.69;5076195;28;20130;-36
2023/01/11 03:58:19;;;;;;;2.15;1.38;;;;;;;9.98;100.00;100615.38;5075296;28;20024;-36
2023/01/11 04:00:46;;;;;;;1.47;1.13;;;;;;;9.90;100.00;100610.28;5075159;28;20093;-36
2023/01/11 04:03:13;;;;;;;2.67;1.30;;;;;;;10.03;100.00;100632.53;5075459;28;20491;-36
2023/01/11 04:05:42;;;;;;;2.05;1.40;;;;;;;10.04;100.00;100628.75;5075607;28;20447;-36
2023/01/11 04:08:08;;;;;;;2.38;1.00;;;;;;;10.01;100.00;100628.44;5075858;28;20090;-37
2023/01/11 04:10:33;;;;;;;1.90;1.00;;;;;;;10.04;100.00;100634.16;5075222;28;20082;-37
2023/01/11 04:12:59;;;;;;;1.50;1.10;;;;;;;10.05;100.00;100625.03;5075595;28;20029;-37
2023/01/11 04:15:24;;;;;;;2.17;1.10;;;;;;;10.05;100.00;100627.72;5075523;28;20024;-37
2023/01/11 04:17:49;;;;;;;1.57;1.30;;;;;;;10.04;100.00;100636.88;5073739;28;20039;-37
2023/01/11 04:20:15;;;;;;;1.20;0.93;;;;;;;10.04;100.00;100644.97;5075689;28;20036;-37
2023/01/11 04:22:40;;;;;;;1.88;1.20;;;;;;;10.06;100.00;100650.16;5075803;28;20028;-37
2023/01/11 04:25:07;;;;;;;2.03;1.27;;;;;;;10.07;100.00;100641.81;5075128;28;20064;-37
2023/01/11 04:27:33;;;;;;;1.63;1.33;;;;;;;10.07;100.00;100639.13;5075396;28;20158;-37
2023/01/11 04:29:58;;;;;;;1.60;1.20;;;;;;;10.09;100.00;100635.34;5075334;28;20484;-37
2023/01/11 04:32:23;;;;;;;2.20;1.60;;;;;;;10.10;100.00;100637.00;5075136;28;20039;-37
2023/01/11 04:34:49;;;;;;;2.27;1.90;;;;;;;10.12;100.00;100629.50;5075612;28;20103;-37
2023/01/11 04:37:14;;;;;;;4.45;2.35;;;;;;;10.15;100.00;100637.13;5074700;28;20104;-37
2023/01/11 04:39:40;;;;;;;3.90;2.75;;;;;;;10.16;100.00;100646.88;5074940;28;20033;-37
2023/01/11 04:42:17;;;;;;;3.43;3.13;;;;;;;10.22;100.00;100648.66;5075153;28;20090;-37
2023/01/11 04:44:44;;;;;;;3.53;3.22;;;;;;;10.19;100.00;100635.59;5075183;28;20024;-37
2023/01/11 04:47:09;;;;;;;4.50;3.33;;;;;;;10.23;100.00;100637.59;5074689;28;20033;-37
2023/01/11 04:49:35;;;;;;;5.23;3.63;;;;;;;10.18;100.00;100640.19;5074590;28;20041;-37
2023/01/11 04:52:00;;;;;;;3.87;3.40;;;;;;;10.18;100.00;100645.59;5074021;28;20115;-37
2023/01/11 04:54:25;;;;;;;4.23;3.57;;;;;;;10.27;100.00;100656.91;5074228;28;20048;-37
2023/01/11 04:56:51;;;;;;;3.93;3.63;;;;;;;10.28;100.00;100667.47;5074636;28;20064;-38
2023/01/11 04:59:16;;;;;;;4.80;4.10;;;;;;;10.25;100.00;100653.63;5074644;28;20028;-37
2023/01/11 05:01:41;;;;;;;4.33;3.60;;;;;;;10.24;100.00;100654.66;5074170;28;20499;-37
2023/01/11 05:04:06;;;;;;;4.20;3.80;;;;;;;10.32;100.00;100667.84;5074284;28;20097;-37
2023/01/11 05:06:32;;;;;;;4.67;4.10;;;;;;;10.25;100.00;100662.56;5074177;28;20032;-37
2023/01/11 05:08:57;;;;;;;3.73;3.43;;;;;;;10.30;100.00;100669.97;5074210;28;20423;-37
2023/01/11 05:11:22;;;;;;;4.20;3.77;;;;;;;10.31;100.00;100671.59;5074075;28;20050;-37
2023/01/11 05:13:48;;;;;;;3.70;3.40;;;;;;;10.30;100.00;100665.38;5074051;28;20044;-37
2023/01/11 05:16:25;;;;;;;4.30;3.70;;;;;;;10.31;100.00;100679.72;5072704;28;20044;-38
2023/01/11 05:18:52;;;;;;;4.38;3.97;;;;;;;10.31;100.00;100682.41;5074290;28;20052;-38
2023/01/11 05:21:26;;;;;;;6.03;3.90;;;;;;;10.31;100.00;100677.84;5073915;28;20036;-38
2023/01/11 05:23:52;;;;;;;4.55;4.15;;;;;;;10.33;100.00;100688.41;5073914;28;20031;-38
2023/01/11 05:26:23;;;;;;;4.15;3.75;;;;;;;10.35;100.00;100689.00;5073843;28;20028;-38
2023/01/11 05:28:50;;;;;;;5.20;4.00;;;;;;;10.30;100.00;100681.59;5074427;28;20071;-38
2023/01/11 05:31:16;;;;;;;6.13;4.30;;;;;;;10.32;100.00;100678.66;5073725;28;20110;-38
2023/01/11 05:33:42;;;;;;;5.22;4.45;;;;;;;10.30;100.00;100687.00;5074054;28;20105;-38
2023/01/11 05:36:11;;;;;;;4.82;4.15;;;;;;;10.31;100.00;100695.94;5073702;28;20025;-38
2023/01/11 05:38:37;;;;;;;6.10;3.85;;;;;;;10.30;100.00;100695.13;5074027;28;20031;-38
2023/01/11 05:41:05;;;;;;;5.20;4.00;;;;;;;10.13;100.00;100667.06;5073408;28;20028;-38
2023/01/11 05:43:31;;;;;;;6.40;3.97;;;;;;;10.28;100.00;100697.22;5073664;28;20610;-38
2023/01/11 05:45:57;;;;;;;5.40;3.90;;;;;;;10.22;100.00;100683.78;5073870;28;20024;-38
2023/01/11 05:48:23;;;;;;;6.70;4.03;;;;;;;10.26;100.00;100701.22;5073968;28;20047;-38
2023/01/11 05:50:52;;;;;;;;;;;;;;;10.29;100.00;100700.72;5074432;28;20590;-38
2023/01/11 05:53:18;;;;;;;8.27;3.83;;;;;;;10.26;100.00;100698.50;5074201;28;19913;-38
2023/01/11 05:55:54;;;;;;;6.78;3.95;;;;;;;10.25;100.00;100702.28;5073275;28;20020;-38
2023/01/11 05:58:19;;;;;;;8.57;4.05;;;;;;;10.23;100.00;100709.75;5074084;28;20032;-38
2023/01/11 06:00:49;;;;;;;9.90;3.50;;;;;;;10.17;100.00;100707.97;5073989;28;20508;-38
2023/01/11 06:03:14;;;;;;;7.95;2.90;;;;;;;10.14;100.00;100719.22;5073756;28;20112;-38
2023/01/11 06:05:40;;;;;;;11.10;2.60;;;;;;;10.06;100.00;100718.53;5073184;28;20108;-38
2023/01/11 06:08:05;;;;;;;12.17;3.63;;;;;;;9.99;100.00;100706.97;5073558;28;20255;-38
2023/01/11 06:10:30;;;;;;;10.30;2.73;;;;;;;9.98;100.00;100721.53;5073102;28;20056;-38
2023/01/11 06:13:25;;;;;;;11.70;2.83;;;;;;;9.95;100.00;100732.78;5074003;28;20059;-38
2023/01/11 06:15:41;;;;;;;10.65;2.92;;;;;;;9.90;100.00;100724.56;5072961;28;20032;-38
2023/01/11 06:18:06;;;;;;;13.10;3.10;;;;;;;9.88;100.00;100723.16;5073337;28;20434;-38
2023/01/11 06:20:31;;;;;;;10.90;2.87;;;;;;;9.85;100.00;100729.81;5073046;28;20445;-38
2023/01/11 06:22:57;;;;;;;12.80;2.97;;;;;;;9.82;100.00;100735.69;5073588;28;20350;-38
2023/01/11 06:25:22;;;;;;;12.23;3.50;;;;;;;9.79;100.00;100746.94;5072990;28;20052;-38
2023/01/11 06:27:47;;;;;;;16.73;2.93;;;;;;;9.77;100.00;100751.78;5073799;28;20111;-39
2023/01/11 06:30:13;;;;;;;18.20;3.60;;;;;;;9.76;100.00;100755.50;5073199;28;20032;-38
2023/01/11 06:32:38;;;;;;;13.10;3.35;;;;;;;9.74;100.00;100768.41;5072804;28;20121;-38
2023/01/11 06:35:04;;;;;;;11.90;2.73;;;;;;;9.70;100.00;100764.50;5073236;28;20021;-38
2023/01/11 06:37:29;;;;;;;12.57;2.90;;;;;;;9.68;100.00;100759.34;5073315;28;20028;-38
2023/01/11 06:39:54;;;;;;;12.70;3.33;;;;;;;9.66;100.00;100774.13;5072910;28;20094;-38
2023/01/11 06:42:20;;;;;;;11.17;2.63;;;;;;;9.65;100.00;100785.97;5073095;28;20024;-38
2023/01/11 06:44:45;;;;;;;17.00;3.07;;;;;;;9.55;100.00;100779.22;5072847;28;20017;-38
2023/01/11 06:47:10;;;;;;;18.07;3.33;;;;;;;9.50;100.00;100768.28;5073032;28;20052;-38
2023/01/11 06:49:35;;;;;;;18.00;3.10;;;;;;;9.54;100.00;100785.69;5072836;28;20076;-38
2023/01/11 06:52:01;;;;;;;14.07;3.03;;;;;;;9.58;100.00;100785.25;5072967;28;20050;-38
2023/01/11 06:54:26;;;;;;;14.37;2.90;;;;;;;9.47;100.00;100768.75;5073594;28;20048;-38
2023/01/11 06:56:51;;;;;;;18.77;3.57;;;;;;;9.51;100.00;100817.69;5072982;28;20033;-38
2023/01/11 06:59:17;;;;;;;13.70;3.87;;;;;;;9.40;100.00;100805.75;5073540;28;20028;-38
2023/01/11 07:01:42;;;;;;;14.47;3.07;;;;;;;9.39;100.00;100812.22;5072513;28;20489;-38
2023/01/11 07:04:07;;;;;;;16.03;3.73;;;;;;;9.39;100.00;100809.53;5072656;28;20032;-38
2023/01/11 07:06:34;;;;;;;12.70;3.17;;;;;;;9.42;100.00;100803.69;5072886;28;20039;-38
2023/01/11 07:08:59;;;;;;;15.70;3.17;;;;;;;9.38;100.00;100799.78;5073662;28;20020;-38
2023/01/11 07:11:24;;;;;;;13.97;2.87;;;;;;;9.37;100.00;100802.69;5073067;28;20024;-38
2023/01/11 07:13:50;;;;;;;14.20;3.10;;;;;;;9.43;100.00;100815.31;5074041;28;20017;-38
2023/01/11 07:16:16;;;;;;;15.87;3.77;;;;;;;9.41;100.00;100830.88;5076918;28;20372;-38
2023/01/11 07:18:41;;;;;;;17.38;3.67;;;;;;;9.35;100.00;100824.50;5076811;28;20096;-38
2023/01/11 07:21:07;;;;;;;11.60;3.38;;;;;;;9.38;100.00;100834.03;5076534;28;20040;-38
2023/01/11 07:23:32;;;;;;;13.53;3.17;;;;;;;9.35;100.00;100835.31;5077034;28;20028;-38
2023/01/11 07:25:58;;;;;;;12.00;2.70;;;;;;;9.35;100.00;100839.88;5076138;28;20288;-38
2023/01/11 07:28:23;;;;;;;22.10;4.30;;;;;;;9.31;100.00;100839.50;5076411;28;20369;-38
2023/01/11 07:30:48;;;;;;;18.07;3.73;;;;;;;9.23;100.00;100842.50;5076011;28;20039;-38
2023/01/11 07:33:15;;;;;;;15.77;3.53;;;;;;;9.27;100.00;100859.88;5076057;28;20255;-38
2023/01/11 07:35:40;;;;;;;18.92;3.92;;;;;;;9.26;100.00;100861.75;5076202;28;20033;-38
2023/01/11 07:38:08;;;;;;;12.80;3.22;;;;;;;9.24;100.00;100866.53;5076041;28;20376;-38
2023/01/11 07:40:35;;;;;;;15.80;3.78;;;;;;;9.22;100.00;100871.34;5076079;28;20029;-38
2023/01/11 07:43:18;;;;;;;24.08;4.25;;;;;;;9.15;100.00;100858.97;5076453;28;20063;-38
2023/01/11 07:45:48;;;;;;;17.35;3.45;;;;;;;9.17;100.00;100873.84;5076106;28;20432;-38
2023/01/11 07:48:19;;;;;;;17.67;4.18;;;;;;;9.09;100.00;100860.66;5076046;28;20029;-38
2023/01/11 07:50:45;;;;;;;17.42;3.38;;;;;;;9.08;100.00;100867.13;5075733;28;20049;-38
2023/01/11 07:53:11;;;;;;;14.85;3.65;;;;;;;9.12;100.00;100879.09;5075457;28;20476;-38
2023/01/11 07:55:38;;;;;;;16.48;3.30;;;;;;;9.10;100.00;100891.97;5075295;28;20033;-38
2023/01/11 07:58:04;;;;;;;18.55;3.63;;;;;;;9.09;100.00;100886.81;5076011;28;20469;-38
2023/01/11 08:00:30;;;;;;;;;;;;;;;9.13;100.00;100896.13;5076213;28;20389;-38
2023/01/11 08:02:55;;;;;;;18.35;4.10;;;;;;;8.98;100.00;100897.28;5075229;28;19908;-38
2023/01/11 08:05:20;;;;;;;16.13;3.33;;;;;;;9.05;100.00;100907.19;5073794;28;20064;-38
2023/01/11 08:07:46;;;;;;;17.60;3.50;;;;;;;8.94;100.00;100890.66;5075399;28;20059;-38
2023/01/11 08:10:11;;;;;;;13.27;3.30;;;;;;;8.99;100.00;100901.63;5075554;28;20028;-38
2023/01/11 08:15:30;;;;;;;12.60;3.30;;;;;;;8.95;100.00;100921.97;5075311;28;20047;-38
2023/01/11 08:17:55;;;;;;;20.20;3.55;;;;;;;8.86;100.00;100911.66;5075949;28;20404;-38
2023/01/11 08:20:21;;;;;;;13.80;3.07;;;;;;;8.92;100.00;100929.66;5075210;28;20044;-38
2023/01/11 08:22:47;;;;;;;17.63;4.03;;;;;;;8.90;100.00;100938.00;5075037;28;20263;-38
2023/01/11 08:25:12;;;;;;;15.57;3.42;;;;;;;8.88;100.00;100947.31;5075218;28;20107;-38
2023/01/11 08:27:38;;;;;;;16.58;3.33;;;;;;;8.79;100.00;100941.38;5075005;28;20063;-38
2023/01/11 08:30:04;;;;;;;14.73;3.20;;;;;;;8.84;100.00;100952.34;5075522;28;20112;-38
2023/01/11 08:32:29;;;;;;;18.02;3.53;;;;;;;8.80;100.00;100966.47;5074127;28;20044;-38
2023/01/11 08:34:54;;;;;;;13.93;3.20;;;;;;;8.75;100.00;100965.25;5075753;28;20056;-38
2023/01/11 08:37:20;;;;;;;16.93;3.80;;;;;;;8.75;100.00;100972.50;5074582;28;20036;-38
2023/01/11 08:39:45;;;;;;;20.43;5.07;;;;;;;8.79;100.00;100991.78;5074872;28;20028;-38
2023/01/11 08:42:10;;;;;;;13.70;3.33;;;;;;;8.78;100.00;100996.34;5074441;28;20028;-38
2023/01/11 08:44:36;;;;;;;15.43;3.17;;;;;;;8.72;100.00;100989.13;5075226;28;20419;-38
2023/01/11 08:47:02;;;;;;;17.33;3.93;;;;;;;8.75;100.00;101002.19;5074900;28;20051;-38
2023/01/11 08:49:29;;;;;;;16.23;4.32;;;;;;;8.71;100.00;101000.94;5074822;28;20132;-38
2023/01/11 08:51:54;;;;;;;16.38;3.78;;;;;;;8.70;100.00;101005.50;5074621;28;20036;-38
2023/01/11 08:54:20;;;;;;;13.15;3.30;;;;;;;8.69;100.00;101009.25;5075235;28;20032;-38
2023/01/11 08:56:45;;;;;;;18.90;3.80;;;;;;;8.68;100.00;101012.16;5074396;28;20059;-38
2023/01/11 08:59:10;;;;;;;16.73;3.80;;;;;;;8.67;100.00;101015.88;5074592;28;20063;-38
2023/01/11 09:01:36;;;;;;;13.30;2.73;;;;;;;8.60;100.00;101004.31;5074046;28;20036;-38
2023/01/11 09:04:01;;;;;;;10.77;2.93;;;;;;;8.63;100.00;101018.19;5074898;28;20016;-38
2023/01/11 09:06:26;;;;;;;12.87;3.23;;;;;;;8.60;100.00;101017.81;5074446;28;20281;-38
2023/01/11 09:08:52;;;;;;;20.03;4.77;;;;;;;8.47;100.00;101002.50;5073867;28;20024;-38
2023/01/11 09:14:02;;;;;;;13.23;3.30;;;;;;;8.54;100.00;101010.53;5074128;28;20345;-38
2023/01/11 09:16:27;;;;;;;15.82;4.03;;;;;;;8.50;100.00;101011.00;5074095;28;20485;-38
2023/01/11 09:18:54;;;;;;;17.37;4.37;;;;;;;8.46;100.00;101015.16;5074043;28;20029;-37
2023/01/11 09:21:20;;;;;;;15.77;3.95;;;;;;;8.43;100.00;101012.88;5073873;28;20039;-38
2023/01/11 09:23:45;;;;;;;10.35;3.42;;;;;;;8.45;100.00;101024.28;5074300;28;20388;-38
2023/01/11 09:26:11;;;;;;;16.73;4.35;;;;;;;8.37;100.00;101016.41;5074415;28;20034;-38
2023/01/11 09:28:37;;;;;;;12.77;3.80;;;;;;;8.37;100.00;101026.38;5073602;28;20021;-37
2023/01/11 09:31:03;;;;;;;14.23;3.53;;;;;;;8.33;100.00;101034.00;5073776;28;20035;-38
2023/01/11 09:33:28;;;;;;;19.42;4.93;;;;;;;8.36;100.00;101057.03;5073646;28;20036;-38
2023/01/11 09:35:56;;;;;;;14.07;3.23;;;;;;;8.34;100.00;101051.81;5073493;28;20063;-38
2023/01/11 09:38:25;;;;;;;15.90;3.78;;;;;;;8.34;100.00;101043.75;5073525;28;20427;-38
2023/01/11 09:41:08;;;;;;;22.25;4.25;;;;;;;8.30;100.00;101050.63;5073955;28;20028;-38
2023/01/11 09:43:40;;;;;;;14.23;3.30;;;;;;;8.32;100.00;101047.72;5073772;28;20107;-38
2023/01/11 09:46:07;;;;;;;17.27;3.83;;;;;;;8.47;100.00;101065.31;5073955;28;20024;-38
2023/01/11 09:48:57;;;;;;;17.40;3.83;;;;;;;8.57;100.00;101069.44;5074171;28;20457;-38
2023/01/11 09:51:28;;;;;;;11.70;2.85;;;;;;;8.64;100.00;101065.69;5073616;28;20048;-38
2023/01/11 09:53:56;;;;;;;17.45;4.38;;;;;;;8.63;100.00;101069.41;5073882;28;20025;-38
2023/01/11 09:56:27;;;;;;;18.42;3.83;;;;;;;8.69;100.00;101067.75;5073248;28;20112;-38
2023/01/11 09:59:02;;;;;;;13.45;3.08;;;;;;;8.66;100.00;101073.56;5073803;28;20543;-38
2023/01/11 10:01:45;;;;;;;12.90;3.70;;;;;;;8.71;100.00;101071.03;5073838;28;20028;-38
2023/01/11 10:04:31;;;;;;;12.23;3.13;;;;;;;8.78;100.00;101074.53;5073940;28;20445;-38
2023/01/11 10:07:13;;;;;;;10.15;2.78;;;;;;;8.80;100.00;101064.38;5073792;28;20098;-38
2023/01/11 10:09:53;;;;;;;17.58;3.55;;;;;;;8.96;100.00;101080.06;5073654;28;20037;-38
2023/01/11 10:12:27;;;;;;;15.57;3.70;;;;;;;9.01;100.00;101082.94;5073566;28;20024;-38
2023/01/11 10:15:24;;;;;;;17.08;4.35;;;;;;;9.11;100.00;101076.25;5072916;28;20036;-38
2023/01/11 10:18:18;;;;;;;12.55;3.15;;;;;;;9.15;100.00;101074.78;5011493;28;20034;-38
2023/01/11 10:20:51;;;;;;;14.25;3.42;;;;;;;9.21;100.00;101080.13;5011348;28;20033;-38
2023/01/11 10:23:27;;;;;;;14.20;3.25;;;;;;;9.24;100.00;101074.31;5011857;28;20084;-38
2023/01/11 10:25:57;;;;;;;16.77;3.47;;;;;;;9.25;100.00;101075.16;5011581;28;20422;-38
2023/01/11 10:28:41;;;;;;;18.23;3.15;;;;;;;9.33;100.00;101076.78;5011456;28;20265;-38
2023/01/11 10:35:16;;;;;;;15.80;3.45;;;;;;;9.41;100.00;101077.31;4914896;29;20076;-38
2023/01/11 10:40:34;;;;;;;14.90;3.75;;;;;;;9.50;100.00;101077.88;4915136;29;20139;-38
2023/01/11 10:43:15;;;;;;;14.70;3.08;;;;;;;9.49;100.00;101079.75;4915499;29;20131;-38
2023/01/11 10:45:49;;;;;;;13.13;3.25;;;;;;;9.54;100.00;101082.63;4914962;29;20138;-38
2023/01/11 10:48:36;;;;;;;13.45;3.00;;;;;;;9.50;100.00;101081.41;4914776;29;20036;-38
2023/01/11 10:51:25;;;;;;;14.65;4.10;;;;;;;9.63;100.00;101080.50;4918251;29;20516;-37
2023/01/11 10:54:12;;;;;;;17.73;3.42;;;;;;;9.66;100.00;101085.47;4926117;28;20079;-38
2023/01/11 10:56:58;;;;;;;17.17;4.53;;;;;;;9.59;100.00;101079.28;4976120;28;20051;-38
2023/01/11 10:59:47;;;;;;;14.75;3.47;;;;;;;9.63;100.00;101087.78;4975625;28;20031;-38
2023/01/11 11:02:46;;;;;;;20.38;3.58;;;;;;;9.67;100.00;101097.09;4976073;28;20038;-38
2023/01/11 11:05:29;;;;;;;12.63;3.05;;;;;;;9.67;100.00;101095.22;4975960;28;20050;-38
2023/01/11 11:08:12;;;;;;;13.95;4.28;;;;;;;9.66;100.00;101101.69;4975914;28;20487;-38
2023/01/11 11:10:43;;;;;;;11.70;3.03;;;;;;;9.69;100.00;101092.31;5027950;28;20036;-38
2023/01/11 11:13:14;;;;;;;10.82;3.10;;;;;;;9.72;100.00;101094.56;5076102;28;20037;-38
2023/01/11 11:15:49;;;;;;;15.38;3.25;;;;;;;9.69;100.00;101100.41;5077235;28;20420;-38
2023/01/11 11:18:15;;;;;;;14.13;3.40;;;;;;;9.74;100.00;101103.28;5076422;28;20032;-38
2023/01/11 11:20:42;;;;;;;19.70;3.63;;;;;;;9.73;100.00;101091.66;5076627;28;20111;-38
2023/01/11 11:23:14;;;;;;;15.10;3.83;;;;;;;9.79;100.00;101098.03;5076264;28;20086;-38
2023/01/11 11:25:44;;;;;;;13.85;3.03;;;;;;;9.79;100.00;101100.75;5076284;28;20050;-38
2023/01/11 11:28:21;;;;;;;12.88;3.58;;;;;;;9.82;100.00;101099.50;5076120;28;20021;-38
2023/01/11 11:30:50;;;;;;;14.60;3.47;;;;;;;9.81;100.00;101093.25;5076626;28;20436;-38
2023/01/11 11:33:20;;;;;;;14.10;3.50;;;;;;;9.82;100.00;101094.91;5076112;28;20037;-38
2023/01/11 11:35:55;;;;;;;13.77;3.00;;;;;;;9.86;100.00;101101.53;5076861;28;20384;-38
2023/01/11 11:38:28;;;;;;;13.68;3.53;;;;;;;9.86;100.00;101095.28;5076228;28;20056;-38
2023/01/11 11:41:02;;;;;;;13.60;3.28;;;;;;;9.86;100.00;101109.63;5076238;28;20028;-38
2023/01/11 11:43:28;;;;;;;12.40;2.78;;;;;;;9.82;100.00;101121.91;5075944;28;20447;-38
2023/01/11 11:46:01;;;;;;;12.50;3.08;;;;;;;9.79;100.00;101101.56;5076117;28;20107;-38
2023/01/11 11:48:30;;;;;;;12.43;3.85;;;;;;;9.84;100.00;101109.00;5076366;28;20119;-38
2023/01/11 11:51:02;;;;;;;12.73;2.97;;;;;;;9.82;100.00;101094.91;5076652;28;20044;-38
2023/01/11 11:53:43;;;;;;;13.80;3.25;;;;;;;9.89;100.00;101106.47;5075356;28;20512;-38
2023/01/11 11:56:40;;;;;;;14.07;3.92;;;;;;;9.99;100.00;101114.09;5076484;28;20028;-38